createdAt,value
2023-08-02T00:02:31.543Z,8.55
2023-08-02T00:05:33.444Z,7.70
2023-08-02T00:08:36.246Z,7.35
2023-08-02T00:11:38.232Z,8.57
2023-08-02T00:14:40.134Z,8.05
2023-08-02T00:17:42.026Z,10.55
2023-08-02T00:20:45.662Z,7.57
2023-08-02T00:23:47.446Z,11.20
2023-08-02T00:26:49.470Z,13.25
2023-08-02T00:29:51.593Z,12.30
2023-08-02T00:32:53.512Z,10.07
2023-08-02T00:35:55.507Z,10.55
2023-08-02T00:38:57.309Z,15.02
2023-08-02T00:41:59.081Z,12.65
2023-08-02T00:45:02.932Z,9.32
2023-08-02T00:48:05.726Z,10.73
2023-08-02T00:51:13.893Z,8.52
2023-08-02T00:54:15.860Z,9.45
2023-08-02T00:57:17.717Z,11.30
2023-08-02T01:00:19.675Z,8.80
2023-08-02T01:03:21.883Z,10.90
2023-08-02T01:07:08.659Z,13.20
2023-08-02T01:10:14.374Z,7.78
2023-08-02T01:13:18.194Z,6.38
2023-08-02T01:16:21.389Z,7.95
2023-08-02T01:19:24.028Z,5.63
2023-08-02T01:22:25.895Z,4.82
2023-08-02T01:25:31.581Z,8.15
2023-08-02T01:28:44.118Z,5.97
2023-08-02T01:31:48.840Z,5.85
2023-08-02T01:34:52.345Z,6.28
2023-08-02T01:37:57.468Z,6.68
2023-08-02T01:40:59.458Z,6.82
2023-08-02T01:44:01.267Z,5.95
2023-08-02T01:47:03.198Z,6.60
2023-08-02T01:50:06.009Z,4.70
2023-08-02T01:53:07.808Z,7.93
2023-08-02T01:56:09.648Z,6.05
2023-08-02T01:59:13.434Z,4.82
2023-08-02T02:02:15.679Z,6.28
2023-08-02T02:05:17.536Z,5.38
2023-08-02T02:08:19.488Z,5.25
2023-08-02T02:11:21.479Z,5.15
2023-08-02T02:14:23.242Z,4.40
2023-08-02T02:17:25.208Z,7.60
2023-08-02T02:20:27.074Z,8.10
2023-08-02T02:23:28.924Z,5.88
2023-08-02T02:26:30.893Z,6.82
2023-08-02T02:29:32.729Z,6.20
2023-08-02T02:32:34.564Z,6.25
2023-08-02T02:35:37.766Z,5.72
2023-08-02T02:38:39.701Z,6.53
2023-08-02T02:41:41.502Z,5.85
2023-08-02T02:44:44.457Z,7.70
2023-08-02T02:47:46.560Z,7.82
2023-08-02T02:50:48.557Z,7.43
2023-08-02T02:53:50.530Z,5.50
2023-08-02T02:56:52.525Z,5.55
2023-08-02T02:59:54.599Z,8.07
2023-08-02T03:02:56.465Z,9.50
2023-08-02T03:05:58.405Z,6.90
2023-08-02T03:09:00.269Z,8.25
2023-08-02T03:12:02.081Z,4.95
2023-08-02T03:15:04.197Z,9.70
2023-08-02T03:18:07.802Z,6.28
2023-08-02T03:21:11.894Z,7.05
2023-08-02T03:24:14.096Z,6.80
2023-08-02T03:27:15.909Z,6.78
2023-08-02T03:30:18.034Z,11.13
2023-08-02T03:33:19.871Z,9.93
2023-08-02T03:36:21.788Z,11.98
2023-08-02T03:39:28.299Z,4.47
2023-08-02T03:42:30.211Z,5.82
2023-08-02T03:45:32.039Z,6.63
2023-08-02T03:48:33.970Z,9.93
2023-08-02T03:51:35.796Z,9.25
2023-08-02T03:54:37.789Z,6.75
2023-08-02T03:57:39.695Z,7.20
2023-08-02T04:00:41.624Z,7.07
2023-08-02T04:03:43.610Z,8.75
2023-08-02T04:06:45.904Z,7.13
2023-08-02T04:09:48.228Z,8.98
2023-08-02T04:12:52.576Z,7.80
2023-08-02T04:15:54.855Z,10.02
2023-08-02T04:18:56.894Z,9.90
2023-08-02T04:21:58.864Z,9.18
2023-08-02T04:25:00.825Z,9.43
2023-08-02T04:28:02.669Z,6.70
2023-08-02T04:31:04.545Z,8.85
2023-08-02T04:34:06.842Z,8.40
2023-08-02T04:37:08.908Z,8.82
2023-08-02T04:40:11.787Z,11.65
2023-08-02T04:43:13.759Z,13.38
2023-08-02T04:46:15.788Z,6.75
2023-08-02T04:49:17.765Z,4.43
2023-08-02T04:52:21.233Z,3.25
2023-08-02T04:55:24.270Z,4.00
2023-08-02T04:58:26.475Z,2.05
2023-08-02T05:01:28.904Z,1.98
2023-08-02T05:04:30.798Z,4.03
2023-08-02T05:07:34.537Z,1.92
2023-08-02T05:10:38.660Z,4.57
2023-08-02T05:13:40.639Z,3.80
2023-08-02T05:16:43.966Z,4.68
2023-08-02T05:19:45.939Z,8.45
2023-08-02T05:22:47.760Z,10.57
2023-08-02T05:25:49.642Z,5.78
2023-08-02T05:28:51.508Z,5.68
2023-08-02T05:31:53.302Z,3.28
2023-08-02T05:34:55.165Z,3.22
2023-08-02T05:37:57.740Z,1.65
2023-08-02T05:41:05.612Z,3.38
2023-08-02T05:44:07.472Z,2.58
2023-08-02T05:47:09.316Z,6.70
2023-08-02T05:50:11.197Z,4.82
2023-08-02T05:53:12.992Z,6.90
2023-08-02T05:56:14.879Z,3.55
2023-08-02T05:59:16.738Z,1.35
2023-08-02T06:02:18.680Z,2.28
2023-08-02T06:05:20.538Z,1.30
2023-08-02T06:08:22.409Z,1.08
2023-08-02T06:11:24.263Z,1.52
2023-08-02T06:14:26.230Z,1.23
2023-08-02T06:17:28.512Z,1.52
2023-08-02T06:20:30.411Z,2.35
2023-08-02T06:23:32.292Z,1.20
2023-08-02T06:26:34.249Z,2.33
2023-08-02T06:29:36.328Z,1.75
2023-08-02T06:32:38.284Z,10.30
2023-08-02T06:35:40.153Z,2.80
2023-08-02T06:38:42.104Z,1.73
2023-08-02T06:41:44.189Z,5.43
2023-08-02T06:44:46.360Z,2.03
2023-08-02T06:47:48.241Z,1.70
2023-08-02T06:50:50.268Z,1.23
2023-08-02T06:53:52.991Z,2.88
2023-08-02T06:56:55.014Z,2.17
2023-08-02T06:59:56.896Z,1.25
2023-08-02T07:03:05.399Z,2.08
2023-08-02T07:06:15.604Z,4.00
2023-08-02T07:09:17.440Z,2.30
2023-08-02T07:12:19.322Z,5.30
2023-08-02T07:15:21.138Z,1.70
2023-08-02T07:18:23.571Z,3.03
2023-08-02T07:21:25.445Z,2.35
2023-08-02T07:24:27.452Z,1.63
2023-08-02T07:27:29.262Z,1.30
2023-08-02T07:30:31.114Z,1.67
2023-08-02T07:33:33.207Z,1.35
2023-08-02T07:36:35.090Z,1.38
2023-08-02T07:39:39.630Z,2.15
2023-08-02T07:42:41.416Z,6.80
2023-08-02T07:45:43.239Z,10.23
2023-08-02T07:48:45.043Z,2.92
2023-08-02T07:51:46.835Z,2.13
2023-08-02T07:54:56.516Z,1.33
2023-08-02T07:57:58.912Z,1.05
2023-08-02T08:01:08.778Z,1.92
2023-08-02T08:04:10.930Z,1.92
2023-08-02T08:07:13.469Z,1.67
2023-08-02T08:10:15.439Z,1.15
2023-08-02T08:13:17.259Z,4.13
2023-08-02T08:16:19.098Z,4.13
2023-08-02T08:19:20.998Z,3.90
2023-08-02T08:22:29.623Z,1.40
2023-08-02T08:25:32.754Z,4.00
2023-08-02T08:28:34.485Z,7.85
2023-08-02T08:31:39.628Z,1.55
2023-08-02T08:34:43.632Z,3.55
2023-08-02T08:37:45.702Z,1.17
2023-08-02T08:40:54.328Z,5.88
2023-08-02T08:43:56.263Z,3.33
2023-08-02T08:47:04.056Z,3.13
2023-08-02T08:50:07.807Z,1.33
2023-08-02T08:53:11.750Z,2.92
2023-08-02T08:56:14.490Z,5.40
2023-08-02T08:59:16.934Z,1.05
2023-08-02T09:02:19.347Z,1.42
2023-08-02T09:05:21.654Z,2.80
2023-08-02T09:08:23.417Z,3.05
2023-08-02T09:11:25.305Z,1.58
2023-08-02T09:14:27.212Z,1.63
2023-08-02T09:17:29.446Z,1.02
2023-08-02T09:20:31.381Z,3.22
2023-08-02T09:23:33.365Z,1.52
2023-08-02T09:26:35.285Z,1.67
2023-08-02T09:29:51.987Z,3.10
2023-08-02T09:33:08.498Z,2.50
2023-08-02T09:36:10.467Z,2.43
2023-08-02T09:39:16.965Z,1.27
2023-08-02T09:42:23.294Z,3.03
2023-08-02T09:45:32.393Z,2.00
2023-08-02T09:48:37.519Z,2.05
2023-08-02T09:51:45.058Z,3.15
2023-08-02T09:54:47.268Z,6.82
2023-08-02T09:57:50.254Z,1.70
2023-08-02T10:00:52.264Z,1.50
2023-08-02T10:03:57.204Z,1.92
2023-08-02T10:07:13.579Z,2.50
2023-08-02T10:10:19.882Z,1.05
2023-08-02T10:13:39.054Z,1.30
2023-08-02T10:16:44.260Z,1.52
2023-08-02T10:19:47.418Z,1.67
2023-08-02T10:22:51.955Z,1.52
2023-08-02T10:25:54.865Z,2.85
2023-08-02T10:29:00.270Z,3.28
2023-08-02T10:32:16.966Z,4.03
2023-08-02T10:35:57.319Z,5.20
2023-08-02T10:39:00.033Z,1.98
2023-08-02T10:42:01.817Z,3.58
2023-08-02T10:45:03.641Z,2.45
2023-08-02T10:48:29.794Z,6.85
2023-08-02T10:51:33.129Z,2.03
2023-08-02T10:54:34.930Z,2.55
2023-08-02T10:57:38.461Z,2.03
2023-08-02T11:00:40.642Z,4.53
2023-08-02T11:03:42.805Z,1.40
2023-08-02T11:06:44.903Z,3.38
2023-08-02T11:09:49.205Z,1.60
2023-08-02T11:12:55.384Z,4.93
2023-08-02T11:16:03.168Z,4.97
2023-08-02T11:19:12.070Z,2.75
2023-08-02T11:22:14.171Z,2.05
2023-08-02T11:25:40.655Z,1.73
2023-08-02T11:28:49.703Z,4.63
2023-08-02T11:34:56.589Z,2.15
2023-08-02T11:37:58.890Z,1.75
2023-08-02T11:41:00.936Z,2.40
2023-08-02T11:44:02.758Z,4.00
2023-08-02T11:47:04.620Z,2.10
2023-08-02T11:50:06.870Z,3.40
2023-08-02T11:53:10.899Z,3.10
2023-08-02T11:56:13.584Z,2.95
2023-08-02T11:59:15.613Z,1.92
2023-08-02T12:02:29.290Z,3.28
2023-08-02T12:05:31.207Z,1.70
2023-08-02T12:08:33.069Z,2.45
2023-08-02T12:11:34.912Z,1.60
2023-08-02T12:14:37.705Z,1.50
2023-08-02T12:17:39.745Z,1.88
2023-08-02T12:20:41.623Z,3.60
2023-08-02T12:23:43.471Z,2.10
2023-08-02T12:26:46.271Z,3.35
2023-08-02T12:29:48.801Z,4.05
2023-08-02T12:32:50.685Z,4.15
2023-08-02T12:35:52.615Z,1.90
2023-08-02T12:38:55.566Z,2.58
2023-08-02T12:41:57.375Z,1.40
2023-08-02T12:45:07.908Z,4.43
2023-08-02T12:48:17.649Z,3.33
2023-08-02T12:51:19.599Z,1.90
2023-08-02T12:54:21.419Z,1.23
2023-08-02T12:57:23.311Z,3.50
2023-08-02T13:00:25.125Z,2.70
2023-08-02T13:03:27.859Z,1.98
2023-08-02T13:06:32.969Z,1.88
2023-08-02T13:09:39.791Z,2.05
2023-08-02T13:12:41.621Z,1.95
2023-08-02T13:15:45.164Z,2.30
2023-08-02T13:18:47.578Z,2.20
2023-08-02T13:21:49.935Z,2.10
2023-08-02T13:24:52.374Z,3.67
2023-08-02T13:27:54.194Z,3.28
2023-08-02T13:30:59.845Z,4.70
2023-08-02T13:34:01.702Z,4.25
2023-08-02T13:37:03.526Z,1.95
2023-08-02T13:40:06.041Z,3.03
2023-08-02T13:43:09.248Z,2.88
2023-08-02T13:46:11.135Z,2.90
2023-08-02T13:49:13.420Z,4.05
2023-08-02T13:52:17.565Z,4.90
2023-08-02T13:55:21.233Z,2.15
2023-08-02T13:58:24.884Z,3.15
2023-08-02T14:01:26.813Z,4.93
2023-08-02T14:04:28.813Z,5.28
2023-08-02T14:07:30.781Z,2.63
2023-08-02T14:10:32.686Z,3.45
2023-08-02T14:13:34.526Z,2.53
2023-08-02T14:16:36.994Z,1.83
2023-08-02T14:19:38.799Z,2.95
2023-08-02T14:22:40.637Z,3.05
2023-08-02T14:25:42.442Z,3.08
2023-08-02T14:28:44.299Z,4.82
2023-08-02T14:31:46.092Z,1.80
2023-08-02T14:34:47.952Z,3.08
2023-08-02T14:37:49.776Z,5.45
2023-08-02T14:40:51.986Z,4.13
2023-08-02T14:43:53.824Z,2.30
2023-08-02T14:46:55.720Z,6.63
2023-08-02T14:49:57.569Z,2.28
2023-08-02T14:52:59.444Z,4.35
2023-08-02T14:56:01.427Z,3.33
2023-08-02T14:59:03.339Z,3.72
2023-08-02T15:02:05.328Z,5.60
2023-08-02T15:05:07.766Z,3.15
2023-08-02T15:08:09.565Z,3.88
2023-08-02T15:11:11.900Z,2.70
2023-08-02T15:14:13.912Z,3.90
2023-08-02T15:17:16.006Z,5.32
2023-08-02T15:20:17.908Z,5.68
2023-08-02T15:23:20.031Z,3.03
2023-08-02T15:26:22.052Z,2.70
2023-08-02T15:29:23.974Z,2.80
2023-08-02T15:32:25.832Z,4.07
2023-08-02T15:35:27.722Z,5.55
2023-08-02T15:38:29.617Z,1.63
2023-08-02T15:41:33.199Z,1.80
2023-08-02T15:44:35.268Z,1.65
2023-08-02T15:47:37.289Z,4.28
2023-08-02T15:50:51.797Z,2.65
2023-08-02T15:53:53.841Z,3.92
2023-08-02T15:56:55.835Z,2.08
2023-08-02T15:59:57.940Z,3.22
2023-08-02T16:03:01.569Z,1.65
2023-08-02T16:06:03.551Z,3.10
2023-08-02T16:09:05.517Z,1.77
2023-08-02T16:12:07.575Z,2.97
2023-08-02T16:15:09.920Z,2.00
2023-08-02T16:18:11.912Z,2.85
2023-08-02T16:21:13.864Z,3.33
2023-08-02T16:24:16.958Z,1.73
2023-08-02T16:27:20.699Z,2.45
2023-08-02T16:30:22.734Z,5.95
2023-08-02T16:33:24.782Z,3.92
2023-08-02T16:36:26.780Z,3.63
2023-08-02T16:39:29.238Z,6.15
2023-08-02T16:42:31.325Z,4.78
2023-08-02T16:45:36.480Z,4.50
2023-08-02T16:48:38.508Z,4.82
2023-08-02T16:51:40.613Z,5.72
2023-08-02T16:54:42.749Z,3.90
2023-08-02T16:57:44.586Z,7.80
2023-08-02T17:00:46.328Z,8.20
2023-08-02T17:03:48.584Z,10.00
2023-08-02T17:06:50.558Z,5.05
2023-08-02T17:09:52.797Z,5.80
2023-08-02T17:12:54.661Z,6.30
2023-08-02T17:15:56.639Z,2.42
2023-08-02T17:18:58.559Z,3.33
2023-08-02T17:22:00.374Z,3.70
2023-08-02T17:25:02.175Z,6.85
2023-08-02T17:28:04.178Z,5.68
2023-08-02T17:31:06.003Z,2.35
2023-08-02T17:34:08.106Z,2.83
2023-08-02T17:37:10.088Z,4.10
2023-08-02T17:40:12.549Z,2.53
2023-08-02T17:43:14.660Z,5.43
2023-08-02T17:46:26.602Z,4.05
2023-08-02T17:49:29.625Z,4.47
2023-08-02T17:52:31.693Z,4.60
2023-08-02T17:55:34.033Z,5.40
2023-08-02T17:58:37.341Z,6.80
2023-08-02T18:01:39.374Z,4.18
2023-08-02T18:04:41.911Z,5.03
2023-08-02T18:07:43.887Z,5.57
2023-08-02T18:10:45.763Z,6.00
2023-08-02T18:13:47.763Z,6.00
2023-08-02T18:16:49.730Z,5.90
2023-08-02T18:19:51.768Z,4.28
2023-08-02T18:22:53.760Z,2.72
2023-08-02T18:25:55.702Z,3.20
2023-08-02T18:28:57.618Z,3.95
2023-08-02T18:31:59.533Z,3.97
2023-08-02T18:35:01.883Z,5.68
2023-08-02T18:38:04.193Z,2.78
2023-08-02T18:41:15.517Z,4.72
2023-08-02T18:44:17.405Z,5.18
2023-08-02T18:47:19.219Z,3.75
2023-08-02T18:50:21.185Z,2.67
2023-08-02T18:53:25.016Z,4.43
2023-08-02T18:56:26.775Z,8.10
2023-08-02T18:59:28.854Z,4.70
2023-08-02T19:02:31.312Z,4.57
2023-08-02T19:05:33.643Z,4.25
2023-08-02T19:08:36.687Z,5.93
2023-08-02T19:11:42.017Z,7.93
2023-08-02T19:14:48.291Z,5.78
2023-08-02T19:17:50.324Z,10.43
2023-08-02T19:20:55.473Z,5.75
2023-08-02T19:23:57.623Z,5.90
2023-08-02T19:27:04.136Z,6.25
2023-08-02T19:30:07.523Z,4.33
2023-08-02T19:33:15.644Z,6.05
2023-08-02T19:36:22.623Z,6.70
2023-08-02T19:39:33.646Z,5.10
2023-08-02T19:42:44.544Z,5.53
2023-08-02T19:45:47.634Z,5.50
2023-08-02T19:48:49.677Z,3.95
2023-08-02T19:51:52.247Z,6.10
2023-08-02T19:54:54.060Z,2.97
2023-08-02T19:57:56.095Z,6.90
2023-08-02T20:00:58.313Z,10.02
2023-08-02T20:04:02.328Z,4.65
2023-08-02T20:07:04.771Z,3.67
2023-08-02T20:10:32.964Z,6.50
2023-08-02T20:13:43.809Z,10.20
2023-08-02T20:16:45.786Z,5.28
2023-08-02T20:19:48.085Z,8.07
2023-08-02T20:22:50.100Z,8.02
2023-08-02T20:25:56.681Z,15.43
2023-08-02T20:28:59.118Z,12.23
2023-08-02T20:32:01.047Z,20.42
2023-08-02T20:35:03.303Z,12.63
2023-08-02T20:38:09.449Z,8.88
2023-08-02T20:41:21.316Z,7.35
2023-08-02T20:44:24.788Z,7.55
2023-08-02T20:47:27.399Z,8.90
2023-08-02T20:50:29.158Z,6.95
2023-08-02T20:53:31.335Z,7.25
2023-08-02T20:56:35.118Z,5.47
2023-08-02T20:59:38.419Z,5.60
2023-08-02T21:02:44.409Z,5.70
2023-08-02T21:05:46.392Z,4.90
2023-08-02T21:08:48.601Z,7.05
2023-08-02T21:11:50.662Z,6.47
2023-08-02T21:14:52.734Z,5.50
2023-08-02T21:17:54.884Z,6.45
2023-08-02T21:20:57.323Z,4.45
2023-08-02T21:23:59.186Z,7.43
2023-08-02T21:27:01.147Z,7.18
2023-08-02T21:30:03.115Z,6.68
2023-08-02T21:33:04.976Z,4.30
2023-08-02T21:36:07.010Z,3.78
2023-08-02T21:39:12.207Z,2.92
2023-08-02T21:42:23.460Z,6.10
2023-08-02T21:45:25.710Z,4.68
2023-08-02T21:48:31.534Z,3.65
2023-08-02T21:51:33.524Z,4.38
2023-08-02T21:54:35.399Z,4.20
2023-08-02T21:57:38.967Z,5.63
2023-08-02T22:00:40.736Z,9.38
2023-08-02T22:03:42.576Z,6.00
2023-08-02T22:06:45.005Z,6.00
2023-08-02T22:09:47.393Z,4.63
2023-08-02T22:12:49.379Z,6.80
2023-08-02T22:15:51.151Z,4.88
2023-08-02T22:18:53.121Z,8.85
2023-08-02T22:21:54.914Z,6.22
2023-08-02T22:24:56.730Z,10.55
2023-08-02T22:27:58.658Z,7.80
2023-08-02T22:31:00.362Z,3.92
2023-08-02T22:34:02.145Z,7.50
2023-08-02T22:37:04.163Z,5.32
2023-08-02T22:40:06.658Z,6.45
2023-08-02T22:43:08.504Z,4.18
2023-08-02T22:46:10.471Z,6.07
2023-08-02T22:50:31.192Z,5.43
2023-08-02T22:52:34.048Z,3.65
2023-08-02T22:55:36.964Z,5.25
2023-08-02T22:58:38.868Z,5.55
2023-08-02T23:01:40.704Z,5.72
2023-08-02T23:04:43.144Z,4.38
2023-08-02T23:07:45.125Z,5.55
2023-08-02T23:10:47.046Z,3.28
2023-08-02T23:13:51.466Z,8.13
2023-08-02T23:16:53.260Z,4.93
2023-08-02T23:19:54.972Z,4.57
2023-08-02T23:23:00.086Z,5.57
2023-08-02T23:26:09.431Z,4.97
2023-08-02T23:29:12.368Z,5.50
2023-08-02T23:32:14.268Z,3.35
2023-08-02T23:35:16.040Z,5.78
2023-08-02T23:38:17.977Z,5.05
2023-08-02T23:41:19.915Z,3.00
2023-08-02T23:44:21.640Z,7.40
2023-08-02T23:47:23.515Z,7.95
2023-08-02T23:50:25.263Z,5.78
2023-08-02T23:53:27.028Z,4.35
2023-08-02T23:56:28.802Z,3.85
2023-08-02T23:59:30.572Z,4.97
